Time;durP1;ratioP1;P1;durP2;ratioP2;P2;SDS_P1;SDS_P2;PMS_P1;PMS_P2;Temp;Humidity;BMP_temperature;BMP_pressure;BME280_temperature;BME280_humidity;BME280_pressure;Samples;Min_cycle;Max_cycle;Signal;HPM_P1;HPM_P2
2021/08/19 00:00:10;;;;;;;9.75;8.93;;;17.10;99.90;;;;;;2631356;47;20181;-77
2021/08/19 00:02:39;;;;;;;8.70;7.90;;;17.00;99.90;;;;;;2631336;47;20134;-78
2021/08/19 00:05:11;;;;;;;8.93;8.13;;;17.10;99.90;;;;;;2631234;54;20159;-78
2021/08/19 00:07:40;;;;;;;9.52;7.78;;;17.00;99.90;;;;;;2637651;39;20814;-79
2021/08/19 00:10:10;;;;;;;10.65;8.10;;;17.00;99.90;;;;;;2631495;47;20141;-76
2021/08/19 00:12:40;;;;;;;11.23;8.10;;;17.00;99.90;;;;;;2632854;46;20149;-78
2021/08/19 00:15:10;;;;;;;7.28;6.68;;;17.10;99.90;;;;;;2631349;47;20166;-80
2021/08/19 00:17:38;;;;;;;8.20;7.40;;;17.00;99.90;;;;;;2631382;46;20209;-78
2021/08/19 00:20:12;;;;;;;8.85;7.95;;;17.00;99.90;;;;;;2631520;54;20168;-80
2021/08/19 00:22:40;;;;;;;8.27;7.47;;;17.00;99.90;;;;;;2631390;54;20189;-79
2021/08/19 00:25:11;;;;;;;8.38;7.63;;;17.00;99.90;;;;;;2631480;54;20201;-82
2021/08/19 00:27:39;;;;;;;7.22;6.53;;;17.10;99.90;;;;;;2631483;47;20153;-78
2021/08/19 00:30:09;;;;;;;6.88;6.22;;;17.00;99.90;;;;;;2631402;54;20217;-79
2021/08/19 00:32:38;;;;;;;8.32;7.45;;;17.20;99.90;;;;;;2631342;46;20149;-80
2021/08/19 00:35:22;;;;;;;8.77;7.85;;;17.20;99.90;;;;;;2631382;54;20141;-80
2021/08/19 00:37:51;;;;;;;8.65;7.43;;;17.20;99.90;;;;;;2631566;47;20152;-79
2021/08/19 00:40:19;;;;;;;8.15;7.45;;;17.10;99.90;;;;;;2631284;54;20209;-79
2021/08/19 00:42:48;;;;;;;7.38;6.68;;;17.00;99.90;;;;;;2631398;47;20221;-81
2021/08/19 00:45:18;;;;;;;8.68;7.78;;;17.10;99.90;;;;;;2631265;47;20161;-79
2021/08/19 00:47:47;;;;;;;8.68;7.78;;;17.20;99.90;;;;;;2630974;46;20134;-79
2021/08/19 00:50:16;;;;;;;8.80;6.85;;;17.10;99.90;;;;;;2631215;54;20161;-79
2021/08/19 00:52:47;;;;;;;7.88;7.18;;;17.00;99.90;;;;;;2639011;39;20851;-77
2021/08/19 00:55:17;;;;;;;9.32;8.32;;;17.00;99.90;;;;;;2631192;47;20961;-77
2021/08/19 00:57:48;;;;;;;9.63;8.68;;;17.00;99.90;;;;;;2631297;46;20126;-77
2021/08/19 01:00:17;;;;;;;9.45;8.55;;;17.10;99.90;;;;;;2631039;47;21055;-78
2021/08/19 01:02:48;;;;;;;10.70;9.07;;;17.10;99.90;;;;;;2631301;46;20469;-79
2021/08/19 01:05:18;;;;;;;9.68;8.68;;;17.00;99.90;;;;;;2631151;47;20141;-78
2021/08/19 01:07:50;;;;;;;8.98;7.70;;;17.00;99.90;;;;;;2631263;47;20157;-78
2021/08/19 01:10:18;;;;;;;12.13;8.68;;;17.00;99.90;;;;;;2631287;46;20157;-78
2021/08/19 01:12:48;;;;;;;10.48;8.43;;;17.00;99.90;;;;;;2631306;47;20182;-78
2021/08/19 01:15:17;;;;;;;9.18;8.30;;;16.90;99.90;;;;;;2630816;47;20145;-81
2021/08/19 01:17:57;;;;;;;9.40;8.48;;;17.00;99.90;;;;;;2631242;46;20126;-81
2021/08/19 01:20:28;;;;;;;10.90;9.48;;;17.00;99.90;;;;;;2631343;46;20149;-78
2021/08/19 01:23:02;;;;;;;10.48;9.07;;;17.10;99.90;;;;;;2631326;46;20170;-81
2021/08/19 01:25:31;;;;;;;9.77;8.80;;;17.10;99.90;;;;;;2631052;54;20161;-80
2021/08/19 01:28:02;;;;;;;10.02;9.02;;;17.00;99.90;;;;;;2631023;47;20137;-79
2021/08/19 01:30:31;;;;;;;10.45;8.85;;;17.00;99.90;;;;;;2631290;46;20193;-81
2021/08/19 01:33:00;;;;;;;9.30;8.38;;;16.90;99.90;;;;;;2631336;51;20153;-80
2021/08/19 01:35:30;;;;;;;11.38;9.90;;;17.00;99.90;;;;;;2630939;47;20186;-78
2021/08/19 01:37:59;;;;;;;9.05;7.53;;;17.10;99.90;;;;;;2631196;54;20869;-79
2021/08/19 01:40:27;;;;;;;10.43;9.02;;;17.10;99.90;;;;;;2631290;39;20907;-80
2021/08/19 01:42:56;;;;;;;9.85;8.70;;;17.00;99.90;;;;;;2631070;46;20141;-78
2021/08/19 01:45:28;;;;;;;9.57;8.57;;;16.90;99.90;;;;;;2630930;47;20197;-78
2021/08/19 01:47:56;;;;;;;9.10;8.27;;;16.90;99.90;;;;;;2630974;54;20145;-79
2021/08/19 01:50:25;;;;;;;8.93;8.13;;;17.00;99.90;;;;;;2631067;47;20181;-79
2021/08/19 01:52:54;;;;;;;9.65;8.68;;;16.90;99.90;;;;;;2631202;46;20125;-79
2021/08/19 01:55:23;;;;;;;8.18;7.38;;;16.90;99.90;;;;;;2630860;54;20151;-80
2021/08/19 01:57:52;;;;;;;8.35;7.40;;;16.80;99.90;;;;;;2631185;47;20126;-78
2021/08/19 02:00:20;;;;;;;9.40;7.85;;;16.90;99.90;;;;;;2630957;54;20404;-77
2021/08/19 02:02:52;;;;;;;10.68;6.97;;;16.90;99.90;;;;;;2631115;47;20200;-78
2021/08/19 02:05:21;;;;;;;11.13;8.20;;;16.80;99.90;;;;;;2630979;47;20138;-79
2021/08/19 02:08:03;;;;;;;8.70;7.80;;;16.80;99.90;;;;;;2630706;47;20157;-78
2021/08/19 02:10:32;;;;;;;9.43;8.48;;;16.80;99.90;;;;;;2631023;47;20880;-79
2021/08/19 02:13:01;;;;;;;9.95;8.45;;;16.90;99.90;;;;;;2631050;47;20194;-77
2021/08/19 02:15:30;;;;;;;9.07;7.80;;;16.80;99.90;;;;;;2629779;54;20150;-78
2021/08/19 02:18:02;;;;;;;9.50;7.82;;;16.80;99.90;;;;;;2630070;47;20822;-79
2021/08/19 02:20:31;;;;;;;8.30;7.43;;;16.70;99.90;;;;;;2630761;47;20157;-77
2021/08/19 02:23:02;;;;;;;8.85;8.02;;;16.80;99.90;;;;;;2630925;54;20592;-78
2021/08/19 02:25:31;;;;;;;8.35;7.60;;;16.70;99.90;;;;;;2631737;31;20765;-78
2021/08/19 02:28:00;;;;;;;8.93;7.65;;;16.80;99.90;;;;;;2628956;46;20157;-79
2021/08/19 02:30:29;;;;;;;8.50;7.70;;;16.80;99.90;;;;;;2630986;46;20834;-80
2021/08/19 02:32:58;;;;;;;9.13;7.20;;;16.80;99.90;;;;;;2630885;47;20145;-78
2021/08/19 02:35:30;;;;;;;7.50;6.50;;;16.70;99.90;;;;;;2630503;54;20129;-79
2021/08/19 02:38:02;;;;;;;12.55;8.25;;;16.80;99.90;;;;;;2631095;46;20805;-79
2021/08/19 02:40:32;;;;;;;8.63;7.60;;;16.90;99.90;;;;;;2630978;47;20173;-80
2021/08/19 02:43:00;;;;;;;7.85;7.05;;;16.90;99.90;;;;;;2630440;47;20161;-78
2021/08/19 02:45:29;;;;;;;8.13;7.32;;;16.80;99.90;;;;;;2630173;54;20126;-77
2021/08/19 02:47:58;;;;;;;8.63;7.82;;;16.80;99.90;;;;;;2630586;47;20160;-78
2021/08/19 02:50:29;;;;;;;9.90;8.00;;;16.80;99.90;;;;;;2630803;47;20179;-78
2021/08/19 02:52:59;;;;;;;9.07;7.43;;;16.70;99.90;;;;;;2630945;47;20157;-77
2021/08/19 02:55:27;;;;;;;10.55;7.75;;;16.80;99.90;;;;;;2630621;47;20145;-78
2021/08/19 02:57:56;;;;;;;8.52;7.47;;;16.80;99.90;;;;;;2630908;54;20142;-77
2021/08/19 03:00:25;;;;;;;8.65;7.40;;;16.90;99.90;;;;;;2630814;47;20228;-78
2021/08/19 03:02:54;;;;;;;7.97;7.18;;;16.80;99.90;;;;;;2630865;47;20151;-79
2021/08/19 03:05:23;;;;;;;9.68;7.30;;;16.80;99.90;;;;;;2630393;47;20185;-78
2021/08/19 03:07:54;;;;;;;9.38;7.15;;;16.80;99.90;;;;;;2630855;47;20145;-77
2021/08/19 03:10:23;;;;;;;8.90;7.63;;;16.90;99.90;;;;;;2632149;46;20164;-78
2021/08/19 03:12:51;;;;;;;7.68;6.88;;;16.90;99.90;;;;;;2630409;47;20145;-77
2021/08/19 03:15:20;;;;;;;7.55;6.82;;;16.90;99.90;;;;;;2637916;39;20708;-78
2021/08/19 03:17:49;;;;;;;8.98;7.85;;;16.80;99.90;;;;;;2630474;47;20129;-79
2021/08/19 03:20:18;;;;;;;8.13;7.22;;;16.80;99.90;;;;;;2630274;47;20157;-80
2021/08/19 03:22:48;;;;;;;7.32;6.45;;;16.80;99.90;;;;;;2630692;54;20149;-78
2021/08/19 03:25:20;;;;;;;7.97;7.18;;;16.80;99.90;;;;;;2629892;54;20175;-78
2021/08/19 03:27:49;;;;;;;8.00;7.30;;;16.90;99.90;;;;;;2630544;47;20131;-78
2021/08/19 03:30:18;;;;;;;9.55;6.57;;;16.80;99.90;;;;;;2630678;47;20168;-79
2021/08/19 03:32:46;;;;;;;7.72;6.85;;;16.80;99.90;;;;;;2630742;54;20125;-80
2021/08/19 03:35:15;;;;;;;8.07;6.93;;;16.90;99.90;;;;;;2629991;47;20149;-79
2021/08/19 03:37:44;;;;;;;6.63;5.88;;;16.90;99.90;;;;;;2630345;54;20153;-77
2021/08/19 03:40:14;;;;;;;7.95;7.15;;;16.80;99.90;;;;;;2630227;47;20177;-78
2021/08/19 03:42:46;;;;;;;8.55;7.60;;;16.90;99.90;;;;;;2630538;47;20142;-78
2021/08/19 03:45:17;;;;;;;7.88;6.68;;;16.90;99.90;;;;;;2629924;47;20134;-79
2021/08/19 03:47:45;;;;;;;9.02;7.47;;;16.90;99.90;;;;;;2630683;47;20156;-78
2021/08/19 03:50:15;;;;;;;9.82;7.28;;;16.90;99.90;;;;;;2630503;47;20176;-79
2021/08/19 03:52:44;;;;;;;8.48;6.85;;;16.80;99.90;;;;;;2630465;54;20137;-77
2021/08/19 03:55:13;;;;;;;9.57;6.90;;;16.90;99.90;;;;;;2630282;47;20160;-78
2021/08/19 03:57:42;;;;;;;9.93;8.30;;;16.90;99.90;;;;;;2630934;39;20546;-77
2021/08/19 04:00:14;;;;;;;7.25;6.60;;;16.90;99.90;;;;;;2630536;54;20169;-78
2021/08/19 04:02:44;;;;;;;10.02;8.73;;;16.90;99.90;;;;;;2630293;54;20161;-78
2021/08/19 04:05:13;;;;;;;9.15;7.57;;;16.90;99.90;;;;;;2630447;47;20133;-80
2021/08/19 04:07:42;;;;;;;10.95;7.93;;;17.00;99.90;;;;;;2630176;47;20149;-78
2021/08/19 04:10:12;;;;;;;9.13;8.20;;;16.90;99.90;;;;;;2630625;54;20177;-79
2021/08/19 04:12:41;;;;;;;11.40;8.45;;;16.90;99.90;;;;;;2630488;54;20659;-78
2021/08/19 04:15:13;;;;;;;10.98;9.88;;;17.00;99.90;;;;;;2643962;31;20701;-79
2021/08/19 04:17:42;;;;;;;9.07;7.90;;;17.00;99.90;;;;;;2630614;47;20144;-80
2021/08/19 04:20:13;;;;;;;10.38;8.60;;;17.00;99.90;;;;;;2630514;47;20169;-79
2021/08/19 04:22:41;;;;;;;8.95;8.05;;;17.00;99.90;;;;;;2630389;47;20129;-79
2021/08/19 04:25:11;;;;;;;9.15;8.35;;;17.00;99.90;;;;;;2630212;54;20150;-79
2021/08/19 04:27:40;;;;;;;9.52;8.60;;;16.90;99.90;;;;;;2631760;39;20331;-79
2021/08/19 04:30:11;;;;;;;11.60;8.57;;;17.00;99.90;;;;;;2630587;54;20177;-79
2021/08/19 04:32:42;;;;;;;10.30;8.30;;;16.90;99.90;;;;;;2631505;54;20146;-78
2021/08/19 04:35:12;;;;;;;9.90;8.88;;;16.90;99.90;;;;;;2630928;47;20197;-79
2021/08/19 04:37:41;;;;;;;9.65;8.43;;;16.90;99.90;;;;;;2633477;39;20726;-79
2021/08/19 04:40:11;;;;;;;10.90;9.35;;;16.90;99.90;;;;;;2631363;46;20173;-81
2021/08/19 04:42:40;;;;;;;10.13;8.98;;;16.90;99.90;;;;;;2631295;54;20156;-78
2021/08/19 04:45:10;;;;;;;9.25;8.30;;;17.00;99.90;;;;;;2631076;54;20256;-77
2021/08/19 04:47:45;;;;;;;11.95;10.50;;;17.00;99.90;;;;;;2631475;47;20133;-79
2021/08/19 04:50:15;;;;;;;10.63;8.75;;;16.80;99.90;;;;;;2631404;47;20298;-79
2021/08/19 04:52:43;;;;;;;11.95;9.30;;;16.80;99.90;;;;;;2631351;47;20137;-79
2021/08/19 04:55:12;;;;;;;14.45;10.20;;;16.80;99.90;;;;;;2631247;54;20374;-78
2021/08/19 04:57:41;;;;;;;14.77;9.60;;;16.80;99.90;;;;;;2630956;46;20153;-79
2021/08/19 05:00:12;;;;;;;11.07;9.90;;;16.80;99.90;;;;;;2631237;46;20149;-79
2021/08/19 05:02:41;;;;;;;10.88;9.18;;;16.80;99.90;;;;;;2631253;46;20715;-80
2021/08/19 05:05:13;;;;;;;11.13;9.38;;;16.80;99.90;;;;;;2631220;54;20149;-80
2021/08/19 05:07:42;;;;;;;12.38;9.52;;;16.80;99.90;;;;;;2631178;54;20155;-79
2021/08/19 05:10:12;;;;;;;11.85;10.45;;;17.00;99.90;;;;;;2631351;47;20153;-79
2021/08/19 05:12:41;;;;;;;13.48;10.48;;;17.10;99.90;;;;;;2631399;54;20176;-80
2021/08/19 05:15:10;;;;;;;10.52;9.52;;;17.00;99.90;;;;;;2631089;47;20141;-79
2021/08/19 05:17:39;;;;;;;10.93;9.82;;;17.10;99.90;;;;;;2631258;47;20136;-79
2021/08/19 05:20:12;;;;;;;11.85;10.50;;;17.00;99.90;;;;;;2630972;54;20232;-77
2021/08/19 05:22:40;;;;;;;12.48;10.00;;;17.00;99.90;;;;;;2631331;46;20164;-80
2021/08/19 05:25:10;;;;;;;12.95;9.70;;;17.00;99.90;;;;;;2631023;54;20129;-78
2021/08/19 05:27:39;;;;;;;13.35;11.05;;;17.10;99.90;;;;;;2630997;54;20154;-80
2021/08/19 05:30:10;;;;;;;11.77;10.50;;;17.10;99.90;;;;;;2631292;46;20174;-78
2021/08/19 05:32:39;;;;;;;11.02;9.82;;;17.10;99.90;;;;;;2631416;54;20233;-79
2021/08/19 05:35:12;;;;;;;14.23;10.70;;;17.20;99.90;;;;;;2631105;54;20160;-79
2021/08/19 05:37:41;;;;;;;12.68;11.35;;;17.20;99.90;;;;;;2631327;47;20185;-78
2021/08/19 05:40:11;;;;;;;12.95;11.48;;;17.10;99.90;;;;;;2631130;54;20200;-80
2021/08/19 05:42:40;;;;;;;11.23;9.65;;;17.00;99.90;;;;;;2631026;47;20156;-79
2021/08/19 05:45:10;;;;;;;11.75;10.45;;;17.10;99.90;;;;;;2634069;39;20780;-79
2021/08/19 05:47:39;;;;;;;11.10;9.95;;;17.10;99.90;;;;;;2631122;54;20153;-78
2021/08/19 05:50:13;;;;;;;11.57;10.40;;;17.20;99.90;;;;;;2630437;47;20176;-79
2021/08/19 05:52:43;;;;;;;11.27;10.10;;;17.20;99.90;;;;;;2630953;47;20129;-78
2021/08/19 05:55:13;;;;;;;19.38;17.42;;;17.30;99.90;;;;;;2630075;31;20657;-78
2021/08/19 05:57:43;;;;;;;15.27;10.40;;;17.20;99.90;;;;;;2628748;54;20145;-77
2021/08/19 06:00:13;;;;;;;19.67;15.85;;;17.20;99.90;;;;;;2628753;47;20834;-77
2021/08/19 06:02:42;;;;;;;12.82;10.90;;;17.30;99.90;;;;;;2629823;54;20130;-77
2021/08/19 06:05:14;;;;;;;12.38;10.60;;;17.40;99.90;;;;;;2629395;54;20157;-78
2021/08/19 06:07:43;;;;;;;12.10;10.90;;;17.40;99.90;;;;;;2628109;39;20521;-77
2021/08/19 06:10:13;;;;;;;10.52;9.43;;;17.40;99.90;;;;;;2628564;47;20191;-77
2021/08/19 06:12:42;;;;;;;10.63;9.63;;;17.40;99.90;;;;;;2627278;54;20160;-77
2021/08/19 06:15:12;;;;;;;11.55;9.75;;;17.20;99.90;;;;;;2628769;46;20140;-77
2021/08/19 06:17:40;;;;;;;11.90;10.05;;;17.30;99.90;;;;;;2629398;47;20150;-77
2021/08/19 06:20:14;;;;;;;16.00;9.48;;;17.50;99.90;;;;;;2628134;51;20794;-78
2021/08/19 06:22:43;;;;;;;12.25;9.57;;;17.40;99.90;;;;;;2629848;39;20617;-77
2021/08/19 06:25:13;;;;;;;11.88;10.25;;;17.30;99.90;;;;;;2629064;47;20126;-77
2021/08/19 06:27:42;;;;;;;11.88;9.60;;;17.30;99.90;;;;;;2628234;54;20149;-76
2021/08/19 06:30:12;;;;;;;10.95;9.80;;;17.30;99.90;;;;;;2627710;39;20649;-78
2021/08/19 06:32:41;;;;;;;12.45;10.10;;;17.30;99.90;;;;;;2627407;47;20162;-78
2021/08/19 06:35:14;;;;;;;11.52;10.43;;;17.30;99.90;;;;;;2627278;47;20164;-78
2021/08/19 06:37:42;;;;;;;12.05;10.23;;;17.30;99.90;;;;;;2627796;47;20157;-77
2021/08/19 06:40:12;;;;;;;11.00;8.93;;;17.40;99.90;;;;;;2629274;54;20292;-78
2021/08/19 06:42:41;;;;;;;12.93;8.80;;;17.50;99.90;;;;;;2628946;54;20149;-78
2021/08/19 06:45:11;;;;;;;10.02;9.02;;;17.40;99.90;;;;;;2629006;39;20987;-77
2021/08/19 06:47:40;;;;;;;9.63;8.45;;;17.50;99.90;;;;;;2628402;47;20177;-78
2021/08/19 06:50:10;;;;;;;11.25;8.93;;;17.50;99.90;;;;;;2628628;54;20189;-77
2021/08/19 06:52:44;;;;;;;12.88;8.52;;;17.50;99.90;;;;;;2628920;47;20149;-77
2021/08/19 06:55:13;;;;;;;8.80;7.90;;;17.70;99.90;;;;;;2626753;54;20790;-80
2021/08/19 06:57:42;;;;;;;8.90;8.13;;;17.60;99.90;;;;;;2630245;54;20295;-80
2021/08/19 07:00:13;;;;;;;8.90;7.97;;;17.70;99.90;;;;;;2631437;46;20236;-79
2021/08/19 07:02:42;;;;;;;10.57;8.43;;;17.60;99.90;;;;;;2630022;54;20205;-80
2021/08/19 07:05:11;;;;;;;8.77;7.90;;;17.60;99.90;;;;;;2629991;47;20145;-80
2021/08/19 07:07:43;;;;;;;13.35;7.60;;;17.60;99.90;;;;;;2629381;47;20229;-80
2021/08/19 07:10:12;;;;;;;9.10;6.90;;;17.70;99.90;;;;;;2629718;47;20200;-78
2021/08/19 07:12:41;;;;;;;8.20;7.40;;;17.70;99.90;;;;;;2629680;47;20149;-78
2021/08/19 07:15:11;;;;;;;11.95;7.07;;;17.80;99.90;;;;;;2635402;39;20352;-78
2021/08/19 07:17:40;;;;;;;8.98;7.45;;;17.90;99.90;;;;;;2629831;47;20126;-79
2021/08/19 07:20:10;;;;;;;7.90;7.00;;;17.70;99.90;;;;;;2633932;39;20765;-78
2021/08/19 07:22:39;;;;;;;8.45;7.55;;;17.70;99.90;;;;;;2629925;54;20229;-78
2021/08/19 07:25:12;;;;;;;9.52;8.52;;;17.70;99.90;;;;;;2629563;47;20275;-80
2021/08/19 07:27:41;;;;;;;9.43;8.55;;;17.80;99.90;;;;;;2630108;54;20172;-77
2021/08/19 07:30:11;;;;;;;7.70;6.93;;;17.80;99.90;;;;;;2629122;47;20300;-78
2021/08/19 07:32:40;;;;;;;7.50;6.80;;;17.70;99.90;;;;;;2629385;47;20129;-77
2021/08/19 07:35:11;;;;;;;8.48;7.65;;;17.80;99.90;;;;;;2629519;47;20201;-78
2021/08/19 07:37:48;;;;;;;8.63;6.82;;;17.80;99.90;;;;;;2630012;54;20149;-78
2021/08/19 07:40:20;;;;;;;10.07;8.93;;;17.80;99.90;;;;;;2629862;54;20145;-78
2021/08/19 07:42:50;;;;;;;10.05;7.65;;;17.50;99.90;;;;;;2629717;54;20145;-78
2021/08/19 07:45:19;;;;;;;11.02;8.60;;;17.50;99.90;;;;;;2629368;47;20185;-77
2021/08/19 07:47:48;;;;;;;9.52;7.15;;;17.70;99.90;;;;;;2629420;54;20149;-79
2021/08/19 07:50:18;;;;;;;8.57;7.72;;;17.80;99.90;;;;;;2629412;54;20672;-79
2021/08/19 07:52:46;;;;;;;7.72;7.03;;;17.70;99.90;;;;;;2631407;39;20595;-78
2021/08/19 07:55:15;;;;;;;9.20;8.30;;;17.70;99.90;;;;;;2628893;47;20149;-78
2021/08/19 07:57:49;;;;;;;10.20;9.15;;;17.80;99.90;;;;;;2628731;54;20153;-78
2021/08/19 08:00:22;;;;;;;10.80;8.07;;;17.70;99.90;;;;;;2630636;31;20678;-79
2021/08/19 08:02:51;;;;;;;11.27;8.45;;;17.60;99.90;;;;;;2628752;54;20336;-80
2021/08/19 08:05:21;;;;;;;10.02;8.68;;;17.50;99.90;;;;;;2630584;39;20562;-79
2021/08/19 08:07:50;;;;;;;8.82;8.02;;;17.40;99.90;;;;;;2629781;47;20149;-79
2021/08/19 08:10:20;;;;;;;9.05;7.97;;;17.50;99.90;;;;;;2629044;47;20284;-78
2021/08/19 08:12:51;;;;;;;10.40;8.27;;;17.60;99.90;;;;;;2629769;54;20799;-78
2021/08/19 08:15:20;;;;;;;9.52;8.70;;;17.60;99.90;;;;;;2618810;54;20261;-43
2021/08/19 08:17:49;;;;;;;13.43;10.15;;;17.60;99.90;;;;;;2617126;54;20141;-42
2021/08/19 08:20:18;;;;;;;9.52;8.55;;;17.80;99.90;;;;;;2616815;54;20164;-40
2021/08/19 08:22:49;;;;;;;13.05;11.27;;;18.10;99.90;;;;;;2616598;54;20709;-39
2021/08/19 08:25:18;;;;;;;10.20;9.15;;;18.10;99.90;;;;;;2616274;54;20145;-40
2021/08/19 08:27:59;;;;;;;12.93;10.00;;;18.10;99.90;;;;;;2617080;54;20223;-41
2021/08/19 08:30:29;;;;;;;13.63;12.35;;;18.30;99.90;;;;;;2616929;54;20137;-42
2021/08/19 08:32:58;;;;;;;13.60;12.25;;;18.30;99.90;;;;;;2617257;54;20143;-42
2021/08/19 08:35:27;;;;;;;13.90;12.00;;;18.10;99.90;;;;;;2616756;54;20145;-41
2021/08/19 08:37:55;;;;;;;14.45;13.13;;;18.30;99.90;;;;;;2616491;54;20180;-41
2021/08/19 08:40:26;;;;;;;14.38;12.95;;;18.30;99.90;;;;;;2616910;54;20138;-42
2021/08/19 08:42:58;;;;;;;13.75;12.43;;;18.20;99.90;;;;;;2616775;54;20148;-41
2021/08/19 08:45:27;;;;;;;11.43;10.48;;;18.30;99.90;;;;;;2617035;39;20592;-41
2021/08/19 08:47:56;;;;;;;12.50;11.40;;;18.50;99.90;;;;;;2616822;54;20169;-41
2021/08/19 08:50:25;;;;;;;12.15;10.95;;;18.60;99.90;;;;;;2616691;54;20172;-41
2021/08/19 08:52:55;;;;;;;11.93;11.02;;;18.60;99.90;;;;;;2616609;54;20148;-41
2021/08/19 08:55:24;;;;;;;14.77;13.48;;;18.60;99.90;;;;;;2616692;54;20150;-41
2021/08/19 08:57:53;;;;;;;13.07;11.75;;;18.60;99.90;;;;;;2617235;39;20580;-43
2021/08/19 09:00:25;;;;;;;13.73;12.35;;;18.40;99.90;;;;;;2616507;54;20153;-42
2021/08/19 09:02:54;;;;;;;16.10;14.32;;;18.60;99.90;;;;;;2616411;54;20148;-42
2021/08/19 09:05:24;;;;;;;12.73;11.68;;;18.30;99.90;;;;;;2616227;54;20165;-42
2021/08/19 09:07:56;;;;;;;13.60;12.15;;;18.20;99.90;;;;;;2616425;54;20188;-42
2021/08/19 09:10:27;;;;;;;13.02;11.88;;;18.20;99.90;;;;;;2616535;54;20200;-42
2021/08/19 09:12:56;;;;;;;12.77;11.63;;;18.20;99.90;;;;;;2616940;39;20551;-41
2021/08/19 09:15:28;;;;;;;15.35;11.75;;;18.40;99.90;;;;;;2616491;54;20145;-42
2021/08/19 09:17:59;;;;;;;13.75;11.00;;;18.50;99.90;;;;;;2616337;54;20188;-42
2021/08/19 09:20:35;;;;;;;12.23;10.95;;;18.60;99.90;;;;;;2616581;46;20164;-41
2021/08/19 09:23:06;;;;;;;12.27;11.13;;;18.70;99.90;;;;;;2616380;54;20156;-42
2021/08/19 09:25:38;;;;;;;12.48;10.70;;;18.70;99.90;;;;;;2616330;54;20166;-42
2021/08/19 09:28:21;;;;;;;12.02;10.32;;;18.60;99.90;;;;;;2617087;47;20191;-43
2021/08/19 09:30:55;;;;;;;11.10;9.95;;;18.70;99.90;;;;;;2617008;54;20687;-41
2021/08/19 09:33:25;;;;;;;11.75;10.55;;;18.60;99.90;;;;;;2616236;54;20144;-42
2021/08/19 09:35:56;;;;;;;10.93;9.93;;;18.70;99.90;;;;;;2616630;39;20438;-42
2021/08/19 09:38:27;;;;;;;13.45;12.05;;;18.80;99.90;;;;;;2616496;54;20161;-42
2021/08/19 09:41:11;;;;;;;11.63;10.60;;;18.70;99.90;;;;;;2616616;54;20142;-42
2021/08/19 09:43:42;;;;;;;12.32;11.13;;;18.60;99.90;;;;;;2616522;54;20160;-42
2021/08/19 09:46:15;;;;;;;13.60;11.45;;;18.70;99.90;;;;;;2616335;54;20149;-42
2021/08/19 09:48:44;;;;;;;13.18;11.88;;;18.90;99.90;;;;;;2615972;54;20168;-42
2021/08/19 09:51:15;;;;;;;12.88;11.57;;;18.80;99.90;;;;;;2616045;54;20149;-42
2021/08/19 09:53:45;;;;;;;13.13;11.93;;;18.90;99.90;;;;;;2616132;54;20146;-41
2021/08/19 09:56:15;;;;;;;13.70;12.40;;;18.90;99.90;;;;;;2615994;54;20141;-43
2021/08/19 09:58:45;;;;;;;14.27;11.75;;;19.00;99.90;;;;;;2616285;54;20752;-41
2021/08/19 10:01:17;;;;;;;12.07;10.88;;;19.10;99.90;;;;;;2616219;54;20148;-42
2021/08/19 10:03:47;;;;;;;12.75;11.52;;;19.10;99.90;;;;;;2615354;54;20713;-41
2021/08/19 10:06:16;;;;;;;12.50;11.20;;;19.00;99.90;;;;;;2615884;54;20169;-42
2021/08/19 10:08:45;;;;;;;13.15;11.75;;;19.10;99.90;;;;;;2615281;54;20180;-42
2021/08/19 10:11:15;;;;;;;15.82;13.35;;;19.00;99.90;;;;;;2616254;54;20156;-40
2021/08/19 10:13:44;;;;;;;13.50;12.15;;;19.10;99.90;;;;;;2616188;54;20141;-43
2021/08/19 10:16:20;;;;;;;15.52;14.02;;;18.90;99.90;;;;;;2616156;54;20152;-42
2021/08/19 10:18:50;;;;;;;14.70;13.30;;;18.90;99.90;;;;;;2616517;47;20695;-40
2021/08/19 10:21:21;;;;;;;13.73;12.27;;;18.80;99.90;;;;;;2616593;39;20547;-40
2021/08/19 10:23:50;;;;;;;15.60;14.00;;;18.90;99.90;;;;;;2616519;47;20153;-40
2021/08/19 10:26:22;;;;;;;14.27;12.85;;;19.10;99.90;;;;;;2614978;54;20141;-40
2021/08/19 10:29:00;;;;;;;13.10;11.23;;;19.10;99.90;;;;;;2616223;54;20244;-40
2021/08/19 10:31:49;;;;;;;14.10;12.63;;;19.20;99.90;;;;;;2616290;54;20674;-40
2021/08/19 10:34:21;;;;;;;13.20;11.98;;;19.30;99.90;;;;;;2615911;54;20141;-42
2021/08/19 10:36:57;;;;;;;17.45;12.35;;;19.30;99.90;;;;;;2615712;54;20169;-40
2021/08/19 10:39:38;;;;;;;14.93;13.38;;;19.20;99.90;;;;;;2615606;54;20312;-40
2021/08/19 10:42:11;;;;;;;14.65;13.15;;;19.00;99.90;;;;;;2616441;39;20551;-40
2021/08/19 10:44:44;;;;;;;14.07;12.65;;;19.10;99.90;;;;;;2615059;54;20145;-42
2021/08/19 10:47:39;;;;;;;15.38;13.85;;;19.20;99.90;;;;;;2616162;39;20629;-41
2021/08/19 10:50:24;;;;;;;15.43;13.55;;;19.20;99.90;;;;;;2615961;54;20192;-42
2021/08/19 10:52:53;;;;;;;15.88;14.23;;;19.00;99.90;;;;;;2615495;54;20180;-45
2021/08/19 10:55:22;;;;;;;14.68;13.10;;;19.10;99.90;;;;;;2615635;54;20145;-42
2021/08/19 10:57:58;;;;;;;15.93;14.02;;;19.10;99.90;;;;;;2615771;54;20160;-42
2021/08/19 11:00:42;;;;;;;15.15;13.80;;;19.10;99.90;;;;;;2615440;54;20133;-41
2021/08/19 11:03:46;;;;;;;17.63;15.45;;;19.00;99.90;;;;;;2615939;54;20140;-41
2021/08/19 11:06:17;;;;;;;17.35;15.27;;;19.00;99.90;;;;;;2616049;54;20149;-41
2021/08/19 11:08:51;;;;;;;18.15;16.08;;;18.90;99.90;;;;;;2616097;54;20152;-42
2021/08/19 11:11:32;;;;;;;17.95;14.50;;;19.00;99.90;;;;;;2616175;54;20687;-41
2021/08/19 11:14:03;;;;;;;16.85;15.30;;;19.20;99.90;;;;;;2616193;54;20156;-42
2021/08/19 11:16:32;;;;;;;16.73;14.98;;;19.00;99.90;;;;;;2616200;47;20176;-42
2021/08/19 11:19:21;;;;;;;17.45;15.68;;;18.50;99.90;;;;;;2616672;39;20612;-40
2021/08/19 11:21:57;;;;;;;17.65;15.55;;;18.70;99.90;;;;;;2616698;39;20562;-40
2021/08/19 11:24:29;;;;;;;18.30;16.42;;;18.60;99.90;;;;;;2615800;54;20156;-42
2021/08/19 11:27:03;;;;;;;17.33;15.65;;;18.70;99.90;;;;;;2615642;54;20172;-41
2021/08/19 11:29:35;;;;;;;17.90;16.02;;;18.90;99.90;;;;;;2615868;54;20152;-41
2021/08/19 11:32:06;;;;;;;17.38;14.68;;;19.10;99.90;;;;;;2616238;54;20134;-42
2021/08/19 11:34:37;;;;;;;17.05;15.30;;;19.30;99.90;;;;;;2615875;54;20671;-43
2021/08/19 11:37:07;;;;;;;17.45;15.82;;;19.40;99.90;;;;;;2615104;54;20157;-40
2021/08/19 11:39:36;;;;;;;16.55;14.77;;;19.50;99.90;;;;;;2615720;54;20140;-43
2021/08/19 11:42:07;;;;;;;15.48;13.98;;;19.70;99.90;;;;;;2615376;54;20157;-43
2021/08/19 11:44:36;;;;;;;14.60;13.30;;;19.70;99.90;;;;;;2615713;54;20140;-43
2021/08/19 11:47:11;;;;;;;14.48;13.13;;;19.70;99.90;;;;;;2615678;54;20184;-41
2021/08/19 11:49:42;;;;;;;14.23;12.82;;;19.60;99.90;;;;;;2615710;54;21078;-41
2021/08/19 11:52:12;;;;;;;15.75;14.02;;;19.40;99.90;;;;;;2615968;54;20149;-40
2021/08/19 11:54:44;;;;;;;14.43;12.95;;;19.30;99.90;;;;;;2615434;54;20157;-40
2021/08/19 11:57:26;;;;;;;15.75;14.25;;;19.30;99.90;;;;;;2616101;54;20184;-41
2021/08/19 12:00:03;;;;;;;13.70;12.43;;;19.30;99.90;;;;;;2615935;54;20133;-41
2021/08/19 12:02:40;;;;;;;13.93;12.60;;;19.30;99.90;;;;;;2615221;54;20248;-41
2021/08/19 12:05:14;;;;;;;16.63;13.43;;;19.40;99.90;;;;;;2615544;54;20136;-41
2021/08/19 12:07:45;;;;;;;13.70;12.30;;;19.30;99.90;;;;;;2616482;54;20161;-42
2021/08/19 12:10:15;;;;;;;14.80;13.35;;;19.30;99.90;;;;;;2616270;54;20682;-41
2021/08/19 12:12:46;;;;;;;13.48;12.07;;;19.20;99.90;;;;;;2616267;54;20148;-42
2021/08/19 12:15:17;;;;;;;11.77;10.68;;;19.30;99.90;;;;;;2615942;54;20157;-42
2021/08/19 12:18:06;;;;;;;13.00;11.70;;;19.50;99.90;;;;;;2616149;54;20172;-42
2021/08/19 12:20:38;;;;;;;14.05;12.70;;;19.40;99.90;;;;;;2616115;54;20157;-41
2021/08/19 12:23:21;;;;;;;12.82;11.45;;;19.30;99.90;;;;;;2616091;54;20142;-42
2021/08/19 12:25:50;;;;;;;14.27;12.98;;;19.30;99.90;;;;;;2616027;54;20145;-42
2021/08/19 12:28:19;;;;;;;15.50;14.05;;;19.10;99.90;;;;;;2616260;54;20177;-41
2021/08/19 12:30:58;;;;;;;16.25;14.68;;;19.00;99.90;;;;;;2616005;54;20145;-41
2021/08/19 12:33:32;;;;;;;18.95;17.05;;;18.80;99.90;;;;;;2615194;54;20141;-42
2021/08/19 12:36:15;;;;;;;19.35;17.38;;;18.60;99.90;;;;;;2615743;54;20156;-42
2021/08/19 12:38:46;;;;;;;17.88;16.10;;;18.50;99.90;;;;;;2615373;54;20220;-42
2021/08/19 12:41:17;;;;;;;19.75;17.77;;;18.50;99.90;;;;;;2615740;54;20161;-42
2021/08/19 12:43:47;;;;;;;20.48;18.45;;;18.40;99.90;;;;;;2615811;54;20125;-42
2021/08/19 12:46:17;;;;;;;20.13;18.02;;;18.40;99.90;;;;;;2615944;39;20557;-42
2021/08/19 12:48:46;;;;;;;20.05;18.05;;;18.20;99.90;;;;;;2614544;54;20176;-42
2021/08/19 12:51:27;;;;;;;20.33;18.20;;;18.20;99.90;;;;;;2615907;54;20141;-41
2021/08/19 12:54:10;;;;;;;20.83;18.77;;;18.30;99.90;;;;;;2616754;54;20137;-42